createdAt,value
2018-04-23T00:00:49.788Z,5.70
2018-04-23T00:03:18.104Z,5.30
2018-04-23T00:05:46.331Z,5.20
2018-04-23T00:08:13.782Z,5.80
2018-04-23T00:10:41.273Z,5.40
2018-04-23T00:13:08.706Z,5.40
2018-04-23T00:15:37.373Z,4.87
2018-04-23T00:18:04.809Z,5.07
2018-04-23T00:20:32.254Z,5.47
2018-04-23T00:23:00.492Z,4.40
2018-04-23T00:25:27.916Z,5.13
2018-04-23T00:27:55.367Z,4.83
2018-04-23T00:30:22.829Z,5.23
2018-04-23T00:32:50.297Z,5.20
2018-04-23T00:35:17.752Z,4.80
2018-04-23T00:37:45.205Z,4.77
2018-04-23T00:40:12.666Z,4.53
2018-04-23T00:42:40.123Z,4.90
2018-04-23T00:45:07.597Z,4.60
2018-04-23T00:47:35.035Z,4.60
2018-04-23T00:50:03.231Z,4.93
2018-04-23T00:52:30.669Z,4.60
2018-04-23T00:54:58.124Z,4.57
2018-04-23T00:57:25.595Z,4.77
2018-04-23T00:59:53.046Z,5.50
2018-04-23T01:02:20.497Z,5.20
2018-04-23T01:04:47.945Z,4.50
2018-04-23T01:07:15.386Z,4.33
2018-04-23T01:09:42.841Z,4.10
2018-04-23T01:12:10.289Z,4.70
2018-04-23T01:14:38.509Z,5.17
2018-04-23T01:17:05.958Z,4.20
2018-04-23T01:19:33.402Z,4.77
2018-04-23T01:22:00.849Z,5.23
2018-04-23T01:24:28.298Z,4.50
2018-04-23T01:26:55.758Z,4.73
2018-04-23T01:29:23.197Z,4.67
2018-04-23T01:31:51.434Z,4.83
2018-04-23T01:34:19.738Z,5.37
2018-04-23T01:36:47.197Z,5.20
2018-04-23T01:39:15.414Z,4.70
2018-04-23T01:41:42.871Z,4.30
2018-04-23T01:44:10.310Z,4.20
2018-04-23T01:46:37.758Z,4.83
2018-04-23T01:49:05.970Z,6.03
2018-04-23T01:51:33.439Z,6.90
2018-04-23T01:54:01.818Z,4.80
2018-04-23T01:56:29.265Z,5.10
2018-04-23T01:58:57.019Z,4.50
2018-04-23T02:01:24.862Z,4.60
2018-04-23T02:03:52.310Z,4.50
2018-04-23T02:06:20.533Z,5.00
2018-04-23T02:08:47.979Z,4.80
2018-04-23T02:11:15.430Z,5.10
2018-04-23T02:13:42.874Z,5.10
2018-04-23T02:16:10.352Z,4.73
2018-04-23T02:18:37.775Z,5.73
2018-04-23T02:21:05.252Z,5.70
2018-04-23T02:23:32.685Z,4.60
2018-04-23T02:26:00.129Z,5.13
2018-04-23T02:28:28.354Z,4.47
2018-04-23T02:30:56.438Z,4.90
2018-04-23T02:33:23.883Z,4.80
2018-04-23T02:35:51.342Z,5.40
2018-04-23T02:38:18.801Z,5.23
2018-04-23T02:40:46.242Z,5.53
2018-04-23T02:43:14.410Z,5.00
2018-04-23T02:45:41.897Z,5.50
2018-04-23T02:48:09.342Z,4.93
2018-04-23T02:50:36.785Z,5.53
2018-04-23T02:53:04.244Z,5.83
2018-04-23T02:55:31.683Z,6.13
2018-04-23T02:57:59.130Z,5.40
2018-04-23T03:00:26.578Z,5.73
2018-04-23T03:02:55.251Z,5.30
2018-04-23T03:05:22.694Z,5.50
2018-04-23T03:07:50.150Z,5.40
2018-04-23T03:10:17.609Z,5.37
2018-04-23T03:12:45.051Z,6.03
2018-04-23T03:15:12.501Z,6.20
2018-04-23T03:17:39.954Z,6.17
2018-04-23T03:20:07.408Z,5.70
2018-04-23T03:22:34.854Z,5.70
2018-04-23T03:25:02.298Z,5.80
2018-04-23T03:27:29.766Z,6.13
2018-04-23T03:29:57.200Z,5.60
2018-04-23T03:32:24.641Z,5.90
2018-04-23T03:34:52.863Z,5.60
2018-04-23T03:37:20.314Z,5.70
2018-04-23T03:39:47.763Z,5.70
2018-04-23T03:42:15.210Z,6.80
2018-04-23T03:44:42.662Z,6.07
2018-04-23T03:47:10.117Z,7.10
2018-04-23T03:49:38.326Z,6.87
2018-04-23T03:52:05.770Z,6.70
2018-04-23T03:54:33.217Z,6.40
2018-04-23T03:57:00.665Z,5.90
2018-04-23T03:59:28.114Z,7.67
2018-04-23T04:01:56.338Z,7.00
2018-04-23T04:04:23.787Z,6.40
2018-04-23T04:06:51.565Z,6.70
2018-04-23T04:09:19.066Z,7.37
2018-04-23T04:11:46.477Z,6.90
2018-04-23T04:14:25.840Z,7.63
2018-04-23T04:16:58.889Z,6.77
2018-04-23T04:19:26.242Z,7.30
2018-04-23T04:21:53.693Z,7.00
2018-04-23T04:24:21.147Z,7.67
2018-04-23T04:26:48.618Z,6.93
2018-04-23T04:29:16.070Z,7.90
2018-04-23T04:31:43.514Z,7.67
2018-04-23T04:34:11.846Z,7.63
2018-04-23T04:36:39.286Z,7.10
2018-04-23T04:39:06.754Z,6.97
2018-04-23T04:41:34.196Z,6.57
2018-04-23T04:44:01.658Z,6.97
2018-04-23T04:46:29.123Z,6.60
2018-04-23T04:48:56.563Z,6.37
2018-04-23T04:51:24.053Z,7.50
2018-04-23T04:53:51.889Z,7.20
2018-04-23T04:56:19.359Z,6.67
2018-04-23T04:58:46.805Z,7.53
2018-04-23T05:01:14.253Z,6.80
2018-04-23T05:03:41.724Z,6.40
2018-04-23T05:06:09.182Z,7.07
2018-04-23T05:08:36.643Z,6.70
2018-04-23T05:11:04.186Z,7.00
2018-04-23T05:13:31.642Z,8.03
2018-04-23T05:15:59.109Z,7.30
2018-04-23T05:18:26.545Z,7.90
2018-04-23T05:20:54.015Z,7.70
2018-04-23T05:23:21.458Z,7.37
2018-04-23T05:25:48.921Z,7.23
2018-04-23T05:28:16.378Z,7.70
2018-04-23T05:30:43.946Z,7.57
2018-04-23T05:33:11.504Z,6.87
2018-04-23T05:35:38.946Z,7.90
2018-04-23T05:38:07.046Z,6.80
2018-04-23T05:40:34.493Z,7.27
2018-04-23T05:43:01.951Z,6.80
2018-04-23T05:45:29.413Z,6.90
2018-04-23T05:47:56.865Z,8.90
2018-04-23T05:50:24.421Z,7.37
2018-04-23T05:52:51.861Z,7.53
2018-04-23T05:55:19.313Z,6.20
2018-04-23T05:57:46.767Z,5.30
2018-04-23T06:00:14.279Z,5.13
2018-04-23T06:02:42.493Z,6.83
2018-04-23T06:05:09.963Z,5.53
2018-04-23T06:07:37.386Z,5.20
2018-04-23T06:10:04.831Z,5.03
2018-04-23T06:12:33.333Z,6.20
2018-04-23T06:15:00.782Z,5.63
2018-04-23T06:17:28.234Z,5.10
2018-04-23T06:19:56.446Z,5.43
2018-04-23T06:22:23.922Z,5.67
2018-04-23T06:24:51.378Z,5.10
2018-04-23T06:27:18.821Z,5.20
2018-04-23T06:29:46.278Z,6.40
2018-04-23T06:32:13.739Z,5.30
2018-04-23T06:34:41.201Z,5.80
2018-04-23T06:37:08.642Z,5.43
2018-04-23T06:39:36.206Z,5.90
2018-04-23T06:42:03.665Z,6.03
2018-04-23T06:44:31.110Z,5.60
2018-04-23T06:46:59.129Z,5.30
2018-04-23T06:49:27.117Z,5.27
2018-04-23T06:51:55.338Z,5.40
2018-04-23T06:54:22.792Z,4.80
2018-04-23T06:56:50.242Z,4.80
2018-04-23T06:59:17.697Z,5.40
2018-04-23T07:01:45.194Z,5.67
2018-04-23T07:04:12.623Z,4.80
2018-04-23T07:06:40.069Z,5.10
2018-04-23T07:09:07.526Z,6.43
2018-04-23T07:11:35.446Z,5.77
2018-04-23T07:14:03.738Z,5.20
2018-04-23T07:16:31.983Z,5.10
2018-04-23T07:18:59.391Z,4.90
2018-04-23T07:21:26.831Z,4.43
2018-04-23T07:23:54.327Z,4.20
2018-04-23T07:26:21.765Z,3.90
2018-04-23T07:28:49.226Z,4.73
2018-04-23T07:31:16.758Z,4.23
2018-04-23T07:33:44.232Z,4.77
2018-04-23T07:36:11.675Z,4.40
2018-04-23T07:38:39.117Z,4.40
2018-04-23T07:41:07.345Z,4.90
2018-04-23T07:43:34.782Z,4.93
2018-04-23T07:46:02.239Z,4.37
2018-04-23T07:48:29.687Z,4.40
2018-04-23T07:50:57.129Z,4.90
2018-04-23T07:53:24.573Z,4.90
2018-04-23T07:55:53.346Z,4.33
2018-04-23T07:58:20.794Z,4.43
2018-04-23T08:00:48.242Z,4.10
2018-04-23T08:03:15.698Z,4.53
2018-04-23T08:05:43.178Z,5.37
2018-04-23T08:08:10.622Z,4.47
2018-04-23T08:10:38.066Z,4.10
2018-04-23T08:13:05.517Z,5.40
2018-04-23T08:15:32.970Z,4.80
2018-04-23T08:18:00.427Z,4.17
2018-04-23T08:20:27.865Z,4.37
2018-04-23T08:22:55.316Z,4.67
2018-04-23T08:25:22.771Z,4.50
2018-04-23T08:27:50.214Z,4.90
2018-04-23T08:30:17.668Z,5.27
2018-04-23T08:32:45.890Z,4.40
2018-04-23T08:35:13.334Z,4.57
2018-04-23T08:37:40.778Z,4.60
2018-04-23T08:40:08.271Z,4.47
2018-04-23T08:42:35.714Z,4.63
2018-04-23T08:45:04.106Z,3.90
2018-04-23T08:47:31.558Z,5.67
2018-04-23T08:49:59.010Z,5.20
2018-04-23T08:52:26.453Z,5.40
2018-04-23T08:54:53.903Z,4.23
2018-04-23T08:57:21.397Z,4.57
2018-04-23T08:59:48.826Z,4.80
2018-04-23T09:02:16.290Z,4.07
2018-04-23T09:04:43.753Z,5.13
2018-04-23T09:07:11.209Z,5.20
2018-04-23T09:09:38.650Z,5.63
2018-04-23T09:12:07.466Z,5.00
2018-04-23T09:14:34.918Z,5.33
2018-04-23T09:17:02.943Z,4.70
2018-04-23T09:19:30.967Z,5.67
2018-04-23T09:21:58.405Z,5.00
2018-04-23T09:24:25.874Z,5.80
2018-04-23T09:26:53.338Z,5.33
2018-04-23T09:29:20.796Z,5.23
2018-04-23T09:31:48.253Z,5.77
2018-04-23T09:34:15.694Z,4.90
2018-04-23T09:36:43.139Z,5.60
2018-04-23T09:39:11.030Z,4.93
2018-04-23T09:41:38.486Z,4.90
2018-04-23T09:44:05.946Z,5.13
2018-04-23T09:46:33.402Z,5.60
2018-04-23T09:49:02.590Z,4.83
2018-04-23T09:51:30.038Z,4.97
2018-04-23T09:53:57.486Z,4.90
2018-04-23T09:56:24.938Z,5.73
2018-04-23T09:58:52.378Z,5.00
2018-04-23T10:01:21.397Z,5.37
2018-04-23T10:03:50.698Z,5.03
2018-04-23T10:06:18.135Z,5.30
2018-04-23T10:08:45.592Z,4.97
2018-04-23T10:11:13.026Z,5.20
2018-04-23T10:13:41.251Z,5.47
2018-04-23T10:16:08.691Z,5.60
2018-04-23T10:18:36.179Z,5.60
2018-04-23T10:21:03.655Z,5.50
2018-04-23T10:23:32.594Z,4.80
2018-04-23T10:26:00.054Z,5.20
2018-04-23T10:28:27.494Z,4.80
2018-04-23T10:30:54.952Z,5.00
2018-04-23T10:33:22.397Z,5.23
2018-04-23T10:35:50.618Z,5.23
2018-04-23T10:38:18.074Z,4.23
2018-04-23T10:40:45.918Z,4.80
2018-04-23T10:43:13.370Z,5.00
2018-04-23T10:45:40.806Z,4.23
2018-04-23T10:48:09.350Z,4.67
2018-04-23T10:50:36.782Z,5.40
2018-04-23T10:53:04.226Z,5.37
2018-04-23T10:55:32.262Z,4.50
2018-04-23T10:58:00.471Z,5.27
2018-04-23T11:00:27.918Z,4.60
2018-04-23T11:02:55.369Z,5.13
2018-04-23T11:05:22.825Z,5.17
2018-04-23T11:07:50.269Z,5.23
2018-04-23T11:10:18.486Z,4.57
2018-04-23T11:12:45.939Z,5.13
2018-04-23T11:15:13.391Z,4.50
2018-04-23T11:17:40.833Z,4.57
2018-04-23T11:20:08.287Z,4.87
2018-04-23T11:22:35.727Z,4.03
2018-04-23T11:25:03.946Z,5.33
2018-04-23T11:27:31.388Z,4.73
2018-04-23T11:29:58.830Z,4.80
2018-04-23T11:32:26.310Z,5.63
2018-04-23T11:34:53.729Z,4.80
2018-04-23T11:37:21.958Z,4.93
2018-04-23T11:39:49.407Z,5.37
2018-04-23T11:42:16.861Z,5.93
2018-04-23T11:44:44.303Z,5.03
2018-04-23T11:47:11.765Z,4.80
2018-04-23T11:49:39.219Z,4.20
2018-04-23T11:52:06.676Z,4.87
2018-04-23T11:54:34.149Z,4.60
2018-04-23T11:57:01.588Z,4.83
2018-04-23T11:59:29.046Z,5.20
2018-04-23T12:01:56.485Z,5.10
2018-04-23T12:04:23.961Z,4.00
2018-04-23T12:06:51.596Z,4.40
2018-04-23T12:09:19.802Z,3.90
2018-04-23T12:11:47.254Z,3.83
2018-04-23T12:14:14.714Z,4.00
2018-04-23T12:16:42.587Z,3.87
2018-04-23T12:19:10.049Z,3.53
2018-04-23T12:21:37.523Z,3.60
2018-04-23T12:24:04.958Z,4.50
2018-04-23T12:26:32.403Z,3.90
2018-04-23T12:28:59.849Z,4.30
2018-04-23T12:31:27.302Z,3.53
2018-04-23T12:33:54.801Z,3.60
2018-04-23T12:36:22.210Z,4.03
2018-04-23T12:38:49.649Z,4.10
2018-04-23T12:41:17.873Z,3.83
2018-04-23T12:43:45.338Z,3.53
2018-04-23T12:46:12.811Z,3.90
2018-04-23T12:48:40.938Z,3.67
2018-04-23T12:51:08.394Z,4.43
2018-04-23T12:53:35.849Z,4.10
2018-04-23T12:56:03.938Z,3.70
2018-04-23T12:58:31.396Z,3.60
2018-04-23T13:00:58.839Z,3.57
2018-04-23T13:03:26.766Z,3.07
2018-04-23T13:05:54.210Z,3.77
2018-04-23T13:08:22.426Z,3.90
2018-04-23T13:10:49.886Z,3.83
2018-04-23T13:13:17.326Z,3.80
2018-04-23T13:15:45.546Z,3.60
2018-04-23T13:18:12.998Z,3.10
2018-04-23T13:20:40.757Z,3.40
2018-04-23T13:23:08.199Z,2.80
2018-04-23T13:25:35.643Z,3.20
2018-04-23T13:28:03.858Z,3.50
2018-04-23T13:30:31.303Z,2.90
2018-04-23T13:32:58.762Z,3.27
2018-04-23T13:35:26.202Z,2.90
2018-04-23T13:37:53.674Z,2.60
2018-04-23T13:40:21.117Z,3.13
2018-04-23T13:42:48.562Z,3.50
2018-04-23T13:45:16.794Z,3.40
2018-04-23T13:47:44.250Z,3.00
2018-04-23T13:50:11.757Z,3.47
2018-04-23T13:52:39.143Z,3.43
2018-04-23T13:55:06.589Z,3.50
2018-04-23T13:57:34.054Z,3.07
2018-04-23T14:00:01.506Z,4.03
2018-04-23T14:02:28.968Z,3.50
2018-04-23T14:04:56.418Z,3.63
2018-04-23T14:07:23.865Z,3.50
2018-04-23T14:09:51.319Z,3.43
2018-04-23T14:12:18.770Z,4.13
2018-04-23T14:14:46.214Z,3.30
2018-04-23T14:17:14.444Z,3.20
2018-04-23T14:19:41.918Z,3.63
2018-04-23T14:22:09.357Z,4.20
2018-04-23T14:24:36.809Z,4.20
2018-04-23T14:27:04.262Z,4.13
2018-04-23T14:29:31.727Z,3.70
2018-04-23T14:31:59.161Z,4.00
2018-04-23T14:34:26.598Z,4.63
2018-04-23T14:36:54.049Z,5.57
2018-04-23T14:39:21.498Z,5.20
2018-04-23T14:41:49.714Z,5.13
2018-04-23T14:44:17.170Z,5.63
2018-04-23T14:46:44.654Z,4.77
2018-04-23T14:49:12.119Z,6.03
2018-04-23T14:51:39.558Z,4.90
2018-04-23T14:54:07.011Z,6.10
2018-04-23T14:56:34.459Z,5.80
2018-04-23T14:59:01.922Z,5.33
2018-04-23T15:01:29.383Z,5.07
2018-04-23T15:03:56.826Z,5.00
2018-04-23T15:06:24.273Z,5.63
2018-04-23T15:08:51.722Z,6.37
2018-04-23T15:11:19.162Z,5.87
2018-04-23T15:13:46.617Z,6.10
2018-04-23T15:16:14.832Z,5.73
2018-04-23T15:18:42.300Z,5.40
2018-04-23T15:21:10.189Z,5.17
2018-04-23T15:23:37.650Z,5.40
2018-04-23T15:26:05.094Z,5.20
2018-04-23T15:28:32.530Z,5.33
2018-04-23T15:31:00.500Z,5.10
2018-04-23T15:33:27.938Z,4.13
2018-04-23T15:35:55.528Z,4.87
2018-04-23T15:38:22.925Z,5.17
2018-04-23T15:40:51.162Z,4.67
2018-04-23T15:43:18.610Z,4.90
2018-04-23T15:45:46.065Z,5.47
2018-04-23T15:48:13.510Z,4.20
2018-04-23T15:50:40.958Z,4.30
2018-04-23T15:53:08.393Z,4.00
2018-04-23T15:55:35.848Z,4.17
2018-04-23T15:58:04.626Z,4.83
2018-04-23T16:00:32.841Z,4.77
2018-04-23T16:03:00.926Z,4.30
2018-04-23T16:05:28.374Z,3.60
2018-04-23T16:07:55.817Z,4.30
2018-04-23T16:10:23.320Z,4.10
2018-04-23T16:12:50.730Z,4.30
2018-04-23T16:15:18.236Z,4.43
2018-04-23T16:17:45.674Z,5.07
2018-04-23T16:20:13.133Z,4.87
2018-04-23T16:22:40.570Z,4.60
2018-04-23T16:25:08.770Z,3.97
2018-04-23T16:27:36.210Z,5.00
2018-04-23T16:30:03.720Z,4.10
2018-04-23T16:32:31.435Z,4.10
2018-04-23T16:34:58.866Z,3.63
2018-04-23T16:37:26.357Z,3.80
2018-04-23T16:39:53.962Z,3.57
2018-04-23T16:42:22.162Z,3.13
2018-04-23T16:44:50.544Z,3.10
2018-04-23T16:47:17.070Z,3.77
2018-04-23T16:49:44.520Z,3.83
2018-04-23T16:52:11.994Z,3.93
2018-04-23T16:54:39.431Z,3.23
2018-04-23T16:57:06.870Z,2.90
2018-04-23T16:59:36.021Z,3.17
2018-04-23T17:02:03.475Z,3.20
2018-04-23T17:04:30.934Z,2.97
2018-04-23T17:06:58.373Z,3.30
2018-04-23T17:09:25.829Z,3.27
2018-04-23T17:11:54.226Z,2.83
2018-04-23T17:14:22.617Z,2.63
2018-04-23T17:16:50.051Z,2.70
2018-04-23T17:19:17.958Z,3.70
2018-04-23T17:21:45.408Z,3.03
2018-04-23T17:24:12.858Z,3.37
2018-04-23T17:26:40.308Z,3.10
2018-04-23T17:29:07.746Z,3.50
2018-04-23T17:31:35.218Z,3.23
2018-04-23T17:34:03.418Z,3.53
2018-04-23T17:36:30.854Z,3.00
2018-04-23T17:38:58.306Z,3.40
2018-04-23T17:41:25.770Z,3.23
2018-04-23T17:43:53.218Z,3.10
2018-04-23T17:46:20.666Z,3.03
2018-04-23T17:48:48.118Z,3.17
2018-04-23T17:51:15.564Z,2.87
2018-04-23T17:53:43.027Z,3.00
2018-04-23T17:56:10.468Z,3.60
2018-04-23T17:58:37.926Z,3.30
2018-04-23T18:01:05.374Z,3.50
2018-04-23T18:03:32.825Z,3.70
2018-04-23T18:06:01.774Z,3.50
2018-04-23T18:08:29.234Z,2.77
2018-04-23T18:10:56.674Z,3.30
2018-04-23T18:13:24.121Z,2.73
2018-04-23T18:15:51.585Z,3.40
2018-04-23T18:18:19.029Z,2.83
2018-04-23T18:20:46.481Z,3.07
2018-04-23T18:23:13.917Z,3.20
2018-04-23T18:25:41.382Z,2.53
2018-04-23T18:28:08.821Z,2.70
2018-04-23T18:30:37.047Z,2.63
2018-04-23T18:33:04.486Z,3.00
2018-04-23T18:35:31.926Z,2.53
2018-04-23T18:37:59.373Z,2.93
2018-04-23T18:40:26.817Z,3.07
2018-04-23T18:42:55.037Z,2.73
2018-04-23T18:45:22.508Z,2.57
2018-04-23T18:47:49.958Z,2.67
2018-04-23T18:50:17.664Z,2.83
2018-04-23T18:52:45.117Z,2.87
2018-04-23T18:55:12.554Z,3.07
2018-04-23T18:57:40.010Z,2.60
2018-04-23T19:00:08.215Z,2.27
2018-04-23T19:02:36.759Z,2.93
2018-04-23T19:05:04.202Z,2.10
2018-04-23T19:07:31.650Z,2.70
2018-04-23T19:09:59.097Z,3.50
2018-04-23T19:12:26.534Z,2.67
2018-04-23T19:14:54.754Z,3.40
2018-04-23T19:17:22.965Z,3.03
2018-04-23T19:19:51.184Z,3.20
2018-04-23T19:22:18.641Z,3.27
2018-04-23T19:24:46.082Z,3.47
2018-04-23T19:27:13.530Z,3.60
2018-04-23T19:29:41.395Z,3.60
2018-04-23T19:32:09.930Z,3.60
2018-04-23T19:34:37.378Z,3.53
2018-04-23T19:37:04.822Z,3.70
2018-04-23T19:39:32.274Z,4.20
2018-04-23T19:41:59.717Z,3.80
2018-04-23T19:44:27.193Z,4.03
2018-04-23T19:46:54.653Z,4.30
2018-04-23T19:49:22.090Z,4.13
2018-04-23T19:51:49.537Z,4.47
2018-04-23T19:54:17.046Z,4.40
2018-04-23T19:56:45.317Z,4.33
2018-04-23T19:59:12.762Z,4.87
2018-04-23T20:01:40.846Z,5.00
2018-04-23T20:04:08.295Z,6.23
2018-04-23T20:06:35.741Z,6.67
2018-04-23T20:09:03.188Z,6.53
2018-04-23T20:11:30.641Z,6.60
2018-04-23T20:13:58.090Z,7.47
2018-04-23T20:16:25.555Z,8.33
2018-04-23T20:18:52.996Z,7.33
2018-04-23T20:21:20.715Z,6.20
2018-04-23T20:23:48.186Z,5.70
2018-04-23T20:26:15.714Z,5.57
2018-04-23T20:28:43.162Z,4.70
2018-04-23T20:31:10.630Z,5.47
2018-04-23T20:33:38.506Z,5.50
2018-04-23T20:36:05.947Z,5.40
2018-04-23T20:38:33.388Z,5.07
2018-04-23T20:41:00.918Z,4.70
2018-04-23T20:43:29.126Z,5.30
2018-04-23T20:45:56.582Z,5.97
2018-04-23T20:48:24.075Z,6.33
2018-04-23T20:50:51.530Z,5.03
2018-04-23T20:53:18.999Z,4.30
2018-04-23T20:55:47.353Z,5.30
2018-04-23T20:58:14.810Z,5.13
2018-04-23T21:00:42.270Z,6.10
2018-04-23T21:03:10.211Z,5.80
2018-04-23T21:05:37.645Z,5.30
2018-04-23T21:08:05.102Z,5.23
2018-04-23T21:10:32.557Z,6.20
2018-04-23T21:13:00.765Z,6.43
2018-04-23T21:15:28.214Z,6.40
2018-04-23T21:17:55.657Z,5.80
2018-04-23T21:20:23.117Z,6.47
2018-04-23T21:22:50.556Z,5.90
2018-04-23T21:25:18.782Z,5.23
2018-04-23T21:27:46.343Z,5.83
2018-04-23T21:30:14.593Z,5.17
2018-04-23T21:32:42.036Z,6.47
2018-04-23T21:35:09.486Z,4.67
2018-04-23T21:37:36.955Z,5.90
2018-04-23T21:40:04.398Z,5.50
2018-04-23T21:42:32.618Z,4.93
2018-04-23T21:45:00.066Z,5.50
2018-04-23T21:47:27.513Z,5.43
2018-04-23T21:49:54.967Z,5.20
2018-04-23T21:52:22.409Z,5.83
2018-04-23T21:54:50.638Z,5.17
2018-04-23T21:57:18.842Z,4.97
2018-04-23T21:59:46.305Z,5.73
2018-04-23T22:02:14.517Z,4.93
2018-04-23T22:04:41.961Z,5.80
2018-04-23T22:07:09.409Z,4.83
2018-04-23T22:09:36.853Z,5.00
2018-04-23T22:12:04.301Z,5.00
2018-04-23T22:14:32.542Z,6.00
2018-04-23T22:16:59.991Z,5.60
2018-04-23T22:19:27.874Z,5.80
2018-04-23T22:21:55.326Z,4.70
2018-04-23T22:24:22.782Z,6.00
2018-04-23T22:26:50.231Z,5.13
2018-04-23T22:29:17.681Z,5.33
2018-04-23T22:31:45.125Z,5.73
2018-04-23T22:34:12.588Z,5.97
2018-04-23T22:36:40.033Z,5.57
2018-04-23T22:39:07.471Z,6.37
2018-04-23T22:41:36.126Z,6.17
2018-04-23T22:44:03.915Z,7.30
2018-04-23T22:46:32.173Z,6.80
2018-04-23T22:49:01.141Z,6.07
2018-04-23T22:51:28.594Z,6.20
2018-04-23T22:53:56.048Z,6.20
2018-04-23T22:56:23.490Z,6.77
2018-04-23T22:58:50.950Z,6.00
2018-04-23T23:01:18.406Z,6.53
2018-04-23T23:03:45.862Z,6.03
2018-04-23T23:06:13.304Z,6.13
2018-04-23T23:08:40.752Z,7.23
2018-04-23T23:11:08.214Z,6.27
2018-04-23T23:13:35.664Z,6.50
2018-04-23T23:16:03.118Z,7.07
2018-04-23T23:18:30.571Z,6.23
2018-04-23T23:20:58.034Z,6.73
2018-04-23T23:23:25.470Z,7.20
2018-04-23T23:25:53.687Z,6.00
2018-04-23T23:28:21.130Z,5.80
2018-04-23T23:30:48.586Z,6.10
2018-04-23T23:33:16.047Z,6.17
2018-04-23T23:35:43.474Z,6.10
2018-04-23T23:38:11.694Z,7.60
2018-04-23T23:40:39.130Z,6.37
2018-04-23T23:43:06.588Z,6.23
2018-04-23T23:45:34.025Z,6.87
2018-04-23T23:48:01.483Z,5.90
2018-04-23T23:50:29.690Z,6.20
2018-04-23T23:52:57.173Z,6.20
2018-04-23T23:55:24.606Z,6.43
2018-04-23T23:57:52.066Z,6.80
